createdAt,value
2023-02-15T00:00:40.256Z,109.00
2023-02-15T00:05:40.212Z,95.50
2023-02-15T00:10:40.192Z,99.60
2023-02-15T00:15:40.134Z,104.50
2023-02-15T00:20:40.035Z,101.50
2023-02-15T00:25:39.993Z,101.10
2023-02-15T00:30:40.114Z,106.60
2023-02-15T00:35:39.823Z,97.20
2023-02-15T00:40:39.822Z,93.50
2023-02-15T00:45:39.779Z,107.90
2023-02-15T00:50:39.777Z,105.40
2023-02-15T00:55:39.582Z,107.20
2023-02-15T01:00:39.508Z,100.20
2023-02-15T01:05:39.472Z,105.30
2023-02-15T01:10:39.374Z,103.60
2023-02-15T01:15:39.346Z,105.30
2023-02-15T01:20:39.318Z,107.30
2023-02-15T01:25:39.154Z,113.00
2023-02-15T01:30:39.144Z,110.40
2023-02-15T01:35:39.096Z,108.10
2023-02-15T01:40:39.047Z,104.40
2023-02-15T01:45:38.934Z,108.20
2023-02-15T01:50:38.885Z,105.00
2023-02-15T01:55:38.787Z,107.90
2023-02-15T02:00:38.793Z,101.10
2023-02-15T02:05:38.644Z,105.30
2023-02-15T02:10:38.669Z,99.10
2023-02-15T02:15:38.560Z,102.00
2023-02-15T02:20:38.488Z,102.10
2023-02-15T02:25:38.383Z,93.60
2023-02-15T02:30:38.599Z,90.80
2023-02-15T02:35:38.254Z,104.60
2023-02-15T02:40:38.229Z,92.20
2023-02-15T02:45:38.181Z,96.00
2023-02-15T02:50:38.069Z,90.90
2023-02-15T02:55:38.001Z,88.70
2023-02-15T03:00:37.969Z,90.30
2023-02-15T03:05:37.968Z,87.30
2023-02-15T03:10:37.858Z,91.70
2023-02-15T03:15:37.870Z,83.60
2023-02-15T03:20:37.849Z,90.90
2023-02-15T03:25:37.756Z,87.40
2023-02-15T03:30:37.636Z,91.80
2023-02-15T03:35:37.605Z,78.20
2023-02-15T03:40:37.636Z,84.80
2023-02-15T03:45:37.376Z,84.70
2023-02-15T03:50:37.370Z,82.30
2023-02-15T03:55:37.246Z,81.30
2023-02-15T04:00:37.190Z,81.00
2023-02-15T04:05:37.115Z,80.40
2023-02-15T04:10:37.066Z,80.00
2023-02-15T04:15:37.004Z,80.50
2023-02-15T04:20:36.898Z,74.50
2023-02-15T04:25:36.858Z,82.40
2023-02-15T04:30:36.820Z,83.10
2023-02-15T04:35:36.741Z,75.20
2023-02-15T04:40:36.716Z,83.90
2023-02-15T04:45:36.670Z,85.90
2023-02-15T04:50:36.522Z,83.90
2023-02-15T04:55:36.492Z,79.00
2023-02-15T05:00:36.431Z,80.50
2023-02-15T05:05:36.330Z,77.70
2023-02-15T05:10:36.326Z,78.70
2023-02-15T05:15:36.189Z,71.50
2023-02-15T05:20:36.147Z,71.60
2023-02-15T05:25:36.064Z,79.60
2023-02-15T05:30:36.117Z,74.10
2023-02-15T05:35:35.979Z,68.50
2023-02-15T05:40:35.872Z,64.10
2023-02-15T05:45:35.837Z,61.10
2023-02-15T05:50:35.788Z,57.90
2023-02-15T05:55:35.714Z,64.50
2023-02-15T06:00:38.011Z,56.80
2023-02-15T06:05:35.608Z,54.60
2023-02-15T06:10:35.496Z,52.10
2023-02-15T06:15:35.485Z,53.50
2023-02-15T06:20:35.378Z,47.30
2023-02-15T06:25:36.635Z,48.40
2023-02-15T06:30:35.280Z,47.50
2023-02-15T06:35:35.281Z,47.10
2023-02-15T06:40:35.118Z,41.90
2023-02-15T06:45:35.071Z,45.80
2023-02-15T06:50:35.003Z,42.50
2023-02-15T06:55:35.106Z,41.50
2023-02-15T07:00:35.514Z,40.00
2023-02-15T07:05:34.801Z,35.60
2023-02-15T07:10:34.763Z,36.60
2023-02-15T07:15:34.637Z,31.00
2023-02-15T07:20:36.629Z,30.70
2023-02-15T07:25:34.500Z,25.90
2023-02-15T07:30:34.630Z,24.40
2023-02-15T07:35:34.415Z,25.10
2023-02-15T07:40:34.377Z,25.10
2023-02-15T07:45:34.283Z,24.10
2023-02-15T07:50:34.253Z,22.80
2023-02-15T07:55:34.164Z,21.30
2023-02-15T08:00:34.056Z,21.40
2023-02-15T08:05:34.025Z,19.20
2023-02-15T08:10:33.966Z,22.00
2023-02-15T08:15:33.867Z,20.80
2023-02-15T08:20:33.816Z,21.70
2023-02-15T08:25:33.722Z,21.90
2023-02-15T08:30:36.136Z,21.20
2023-02-15T08:35:33.695Z,20.30
2023-02-15T08:40:33.544Z,19.90
2023-02-15T08:45:33.477Z,19.80
2023-02-15T08:50:33.422Z,20.00
2023-02-15T08:55:33.330Z,20.00
2023-02-15T09:00:33.286Z,20.00
2023-02-15T09:05:33.220Z,19.60
2023-02-15T09:10:33.154Z,22.50
2023-02-15T09:15:33.360Z,21.10
2023-02-15T09:20:33.186Z,21.80
2023-02-15T09:25:32.976Z,22.10
2023-02-15T09:30:33.036Z,22.80
2023-02-15T09:35:32.797Z,22.70
2023-02-15T09:40:32.770Z,22.20
2023-02-15T09:45:32.683Z,22.20
2023-02-15T09:50:32.627Z,22.10
2023-02-15T09:55:32.668Z,23.70
2023-02-15T10:00:32.496Z,26.30
2023-02-15T10:05:32.433Z,23.80
2023-02-15T10:10:32.378Z,24.50
2023-02-15T10:15:32.309Z,28.40
2023-02-15T10:20:32.229Z,25.10
2023-02-15T10:25:32.189Z,29.50
2023-02-15T10:30:32.656Z,28.50
2023-02-15T10:35:32.075Z,31.30
2023-02-15T10:40:31.990Z,29.10
2023-02-15T10:45:31.922Z,31.20
2023-02-15T10:50:31.846Z,28.60
2023-02-15T10:55:31.812Z,28.00
2023-02-15T11:00:31.716Z,27.00
2023-02-15T11:05:31.665Z,26.70
2023-02-15T11:10:31.605Z,25.50
2023-02-15T11:15:31.524Z,23.20
2023-02-15T11:20:31.476Z,28.10
2023-02-15T11:25:31.403Z,25.60
2023-02-15T11:30:31.376Z,25.50
2023-02-15T11:35:31.255Z,24.80
2023-02-15T11:40:31.190Z,26.20
2023-02-15T11:45:31.122Z,24.50
2023-02-15T11:50:31.048Z,24.50
2023-02-15T11:55:31.025Z,27.00
2023-02-15T12:00:30.934Z,24.20
2023-02-15T12:05:30.861Z,27.20
2023-02-15T12:10:30.785Z,26.50
2023-02-15T12:15:30.732Z,27.20
2023-02-15T12:20:30.674Z,26.20
2023-02-15T12:25:30.624Z,24.20
2023-02-15T12:30:30.605Z,25.50
2023-02-15T12:35:30.463Z,23.00
2023-02-15T12:40:31.716Z,26.20
2023-02-15T12:45:30.339Z,24.50
2023-02-15T12:50:34.558Z,23.50
2023-02-15T12:55:30.225Z,25.00
2023-02-15T13:00:30.196Z,22.60
2023-02-15T13:05:30.136Z,23.00
2023-02-15T13:10:30.068Z,23.40
2023-02-15T13:15:29.990Z,23.40
2023-02-15T13:20:29.873Z,23.50
2023-02-15T13:25:29.804Z,25.80
2023-02-15T13:30:29.810Z,23.30
2023-02-15T13:35:29.698Z,19.90
2023-02-15T13:40:29.668Z,25.20
2023-02-15T13:45:29.624Z,24.20
2023-02-15T13:50:29.487Z,25.80
2023-02-15T13:55:29.413Z,23.90
2023-02-15T14:00:29.511Z,24.40
2023-02-15T14:05:29.325Z,25.20
2023-02-15T14:10:29.263Z,25.10
2023-02-15T14:15:29.157Z,25.50
2023-02-15T14:20:29.091Z,25.10
2023-02-15T14:25:29.525Z,25.70
2023-02-15T14:30:29.308Z,26.40
2023-02-15T14:35:28.901Z,30.30
2023-02-15T14:40:29.077Z,30.30
2023-02-15T14:45:28.803Z,29.00
2023-02-15T14:50:28.999Z,31.90
2023-02-15T14:55:28.841Z,29.80
2023-02-15T15:00:28.713Z,32.10
2023-02-15T15:05:28.543Z,33.20
2023-02-15T15:10:28.463Z,29.80
2023-02-15T15:15:28.523Z,36.30
2023-02-15T15:20:28.328Z,35.20
2023-02-15T15:25:28.304Z,38.50
2023-02-15T15:30:28.219Z,38.10
2023-02-15T15:35:28.203Z,37.50
2023-02-15T15:40:28.066Z,37.30
2023-02-15T15:45:28.014Z,40.90
2023-02-15T15:50:27.991Z,42.40
2023-02-15T15:55:28.365Z,41.80
2023-02-15T16:00:27.755Z,42.50
2023-02-15T16:05:27.727Z,42.50
2023-02-15T16:10:27.741Z,43.60
2023-02-15T16:15:28.614Z,41.50
2023-02-15T16:20:27.595Z,44.80
2023-02-15T16:25:27.579Z,45.40
2023-02-15T16:30:27.633Z,44.00
2023-02-15T16:35:27.430Z,43.60
2023-02-15T16:40:27.258Z,48.30
2023-02-15T16:45:27.286Z,48.80
2023-02-15T16:50:27.120Z,48.10
2023-02-15T16:55:27.143Z,47.70
2023-02-15T17:00:27.088Z,48.10
2023-02-15T17:05:26.947Z,50.30
2023-02-15T17:10:27.022Z,53.00
2023-02-15T17:15:26.828Z,53.40
2023-02-15T17:20:26.886Z,56.30
2023-02-15T17:25:26.739Z,57.10
2023-02-15T17:30:26.671Z,55.00
2023-02-15T17:35:26.563Z,53.90
2023-02-15T17:40:26.513Z,55.40
2023-02-15T17:45:26.485Z,56.90
2023-02-15T17:50:26.462Z,55.50
2023-02-15T17:55:26.339Z,61.40
2023-02-15T18:00:26.296Z,59.70
2023-02-15T18:05:26.194Z,57.90
2023-02-15T18:10:26.265Z,57.60
2023-02-15T18:15:26.171Z,60.30
2023-02-15T18:20:26.226Z,58.80
2023-02-15T18:25:25.903Z,57.70
2023-02-15T18:30:26.014Z,60.60
2023-02-15T18:35:25.762Z,56.90
2023-02-15T18:40:25.811Z,56.50
2023-02-15T18:45:25.647Z,61.70
2023-02-15T18:50:25.603Z,57.40
2023-02-15T18:55:25.526Z,61.40
2023-02-15T19:00:25.565Z,60.60
2023-02-15T19:05:25.412Z,60.20
2023-02-15T19:10:25.376Z,60.50
2023-02-15T19:15:25.318Z,66.30
2023-02-15T19:20:25.198Z,65.40
2023-02-15T19:25:25.304Z,62.90
2023-02-15T19:30:25.372Z,64.30
2023-02-15T19:35:25.242Z,60.90
2023-02-15T19:40:25.038Z,66.10
2023-02-15T19:45:24.962Z,66.20
2023-02-15T19:50:24.874Z,61.10
2023-02-15T19:55:24.773Z,61.00
2023-02-15T20:00:24.684Z,66.00
2023-02-15T20:05:24.803Z,66.50
2023-02-15T20:10:24.585Z,68.20
2023-02-15T20:15:24.572Z,66.10
2023-02-15T20:20:24.483Z,66.40
2023-02-15T20:25:24.376Z,66.60
2023-02-15T20:30:24.390Z,67.80
2023-02-15T20:35:24.337Z,64.60
2023-02-15T20:40:24.426Z,61.70
2023-02-15T20:45:24.144Z,63.50
2023-02-15T20:50:24.191Z,65.90
2023-02-15T20:55:24.076Z,64.70
2023-02-15T21:00:23.952Z,64.60
2023-02-15T21:05:23.874Z,63.90
2023-02-15T21:10:23.814Z,64.00
2023-02-15T21:15:23.772Z,62.90
2023-02-15T21:20:23.685Z,60.20
2023-02-15T21:25:23.653Z,64.20
2023-02-15T21:30:23.757Z,59.70
2023-02-15T21:35:23.610Z,58.20
2023-02-15T21:40:23.452Z,59.30
2023-02-15T21:45:23.446Z,58.70
2023-02-15T21:50:23.292Z,57.20
2023-02-15T21:55:23.252Z,57.30
2023-02-15T22:00:23.335Z,59.70
2023-02-15T22:05:23.115Z,59.90
2023-02-15T22:10:23.105Z,58.70
2023-02-15T22:15:22.991Z,55.70
2023-02-15T22:20:22.930Z,56.30
2023-02-15T22:25:22.845Z,53.40
2023-02-15T22:30:22.817Z,53.80
2023-02-15T22:35:22.760Z,54.80
2023-02-15T22:40:22.711Z,53.20
2023-02-15T22:45:22.585Z,52.70
2023-02-15T22:50:22.579Z,51.60
2023-02-15T22:55:22.494Z,55.80
2023-02-15T23:00:22.420Z,53.10
2023-02-15T23:05:22.483Z,57.50
2023-02-15T23:10:22.351Z,53.30
2023-02-15T23:15:22.288Z,52.70
2023-02-15T23:20:22.159Z,52.20
2023-02-15T23:25:22.152Z,55.30
2023-02-15T23:30:22.095Z,55.10
2023-02-15T23:35:21.936Z,52.00
2023-02-15T23:40:21.878Z,50.40
2023-02-15T23:45:21.807Z,51.40
2023-02-15T23:50:21.784Z,51.10
2023-02-15T23:55:21.724Z,50.00
